Time;durP1;ratioP1;P1;durP2;ratioP2;P2;SDS_P1;SDS_P2;PMS_P1;PMS_P2;Temp;Humidity;BMP_temperature;BMP_pressure;BME280_temperature;BME280_humidity;BME280_pressure;Samples;Min_cycle;Max_cycle;Signal;HPM_P1;HPM_P2
2022/04/23 00:00:09;;;;;;;15.50;12.60;;;;;;;9.10;83.04;99669.16;672219;29;1756;-77
2022/04/23 00:00:36;;;;;;;13.30;11.90;;;;;;;9.10;81.80;99670.00;673631;29;988;-77
2022/04/23 00:00:56;;;;;;;13.70;12.30;;;;;;;9.10;82.30;99672.63;675416;29;4330;-77
2022/04/23 00:01:17;;;;;;;13.60;12.20;;;;;;;9.11;82.17;99668.25;674923;29;1636;-77
2022/04/23 00:01:37;;;;;;;15.35;12.05;;;;;;;9.10;83.46;99667.41;675167;29;1334;-77
2022/04/23 00:01:58;;;;;;;14.73;12.00;;;;;;;9.10;83.41;99672.63;677211;29;1603;-77
2022/04/23 00:02:18;;;;;;;13.55;12.15;;;;;;;9.07;82.63;99664.84;679109;29;1641;-77
2022/04/23 00:02:41;;;;;;;13.48;12.07;;;;;;;9.07;82.09;99667.47;677599;29;1792;-77
2022/04/23 00:03:01;;;;;;;13.27;11.88;;;;;;;9.07;82.40;99664.84;679936;28;1479;-77
2022/04/23 00:03:22;;;;;;;13.68;11.45;;;;;;;9.09;81.82;99670.88;678228;28;1754;-78
2022/04/23 00:03:42;;;;;;;12.97;11.57;;;;;;;9.06;82.31;99663.13;678039;29;1568;-77
2022/04/23 00:04:03;;;;;;;13.20;11.80;;;;;;;9.06;82.45;99668.34;676553;29;4352;-77
2022/04/23 00:04:24;;;;;;;13.33;11.93;;;;;;;9.05;82.92;99661.38;676687;29;2116;-78
2022/04/23 00:04:45;;;;;;;12.80;11.38;;;;;;;9.05;83.63;99666.59;673497;29;1960;-77
2022/04/23 00:05:06;;;;;;;13.88;12.13;;;;;;;9.05;82.69;99669.22;675744;29;1771;-77
2022/04/23 00:05:28;;;;;;;13.50;12.10;;;;;;;9.06;82.38;99660.50;676984;29;1429;-77
2022/04/23 00:05:48;;;;;;;12.95;11.55;;;;;;;9.03;83.40;99668.38;676548;29;1566;-77
2022/04/23 00:06:09;;;;;;;13.13;11.67;;;;;;;9.04;82.96;99670.09;675871;29;1599;-77
2022/04/23 00:06:29;;;;;;;13.48;11.70;;;;;;;9.04;81.57;99667.47;676211;29;1422;-77
2022/04/23 00:06:49;;;;;;;14.43;11.83;;;;;;;8.97;82.70;99658.03;676935;29;1354;-78
2022/04/23 00:07:10;;;;;;;13.43;11.90;;;;;;;8.99;82.21;99662.34;675795;29;4523;-77
2022/04/23 00:07:30;;;;;;;13.55;11.85;;;;;;;8.99;82.18;99666.72;677162;29;1088;-77
2022/04/23 00:07:50;;;;;;;13.67;12.10;;;;;;;8.95;82.94;99662.41;675183;29;1451;-77
2022/04/23 00:08:11;;;;;;;14.00;12.50;;;;;;;8.96;82.71;99661.53;673715;29;1441;-77
2022/04/23 00:08:31;;;;;;;13.83;12.33;;;;;;;8.94;83.66;99663.28;673552;29;1462;-77
2022/04/23 00:08:52;;;;;;;13.90;12.20;;;;;;;8.91;83.90;99658.97;673468;29;1438;-77
2022/04/23 00:09:12;;;;;;;13.97;12.20;;;;;;;8.92;84.42;99659.88;672850;29;1624;-77
2022/04/23 00:09:33;;;;;;;14.70;12.57;;;;;;;8.87;85.22;99662.50;674611;29;1206;-76
2022/04/23 00:09:53;;;;;;;13.40;12.00;;;;;;;8.91;84.19;99658.97;674311;29;1993;-76
2022/04/23 00:10:14;;;;;;;13.48;12.07;;;;;;;8.92;84.66;99659.88;676520;29;4325;-76
2022/04/23 00:10:35;;;;;;;13.43;12.13;;;;;;;8.90;84.82;99656.41;676453;29;1494;-76
2022/04/23 00:10:56;;;;;;;13.43;12.02;;;;;;;8.89;83.38;99657.28;672577;29;1276;-76
2022/04/23 00:11:16;;;;;;;13.23;11.82;;;;;;;8.88;83.65;99659.03;676255;29;1815;-76
2022/04/23 00:11:36;;;;;;;13.60;12.27;;;;;;;8.85;84.68;99659.94;676649;29;1694;-76
2022/04/23 00:11:58;;;;;;;13.27;11.97;;;;;;;8.85;83.79;99659.94;675873;29;1323;-76
2022/04/23 00:12:19;;;;;;;12.95;11.65;;;;;;;8.83;83.74;99656.50;675772;29;1662;-76
2022/04/23 00:12:42;;;;;;;12.63;11.32;;;;;;;8.86;84.61;99655.56;676411;29;1652;-76
2022/04/23 00:13:04;;;;;;;13.00;11.70;;;;;;;8.89;83.75;99660.75;674505;29;4308;-76
2022/04/23 00:13:24;;;;;;;12.82;11.52;;;;;;;8.86;83.45;99651.25;677749;28;1467;-76
2022/04/23 00:13:46;;;;;;;13.00;11.70;;;;;;;8.82;84.55;99654.78;678205;29;1544;-76
2022/04/23 00:14:07;;;;;;;13.27;11.87;;;;;;;8.78;85.00;99660.06;680144;29;1373;-76
2022/04/23 00:14:28;;;;;;;13.50;12.10;;;;;;;8.74;84.11;99655.75;678856;28;1431;-76
2022/04/23 00:14:49;;;;;;;13.68;12.27;;;;;;;8.75;83.60;99655.75;678060;29;1844;-76
2022/04/23 00:15:09;;;;;;;13.00;11.60;;;;;;;8.76;84.15;99656.59;679014;29;1321;-76
2022/04/23 00:15:37;;;;;;;14.40;12.25;;;;;;;8.78;85.15;99662.66;679443;29;1578;-76
2022/04/23 00:15:57;;;;;;;14.10;12.60;;;;;;;8.78;83.95;99655.69;673521;29;4417;-76
2022/04/23 00:16:17;;;;;;;13.52;12.00;;;;;;;8.78;83.65;99658.28;674407;29;1767;-76
2022/04/23 00:16:38;;;;;;;13.27;11.85;;;;;;;8.79;82.50;99657.44;672018;29;3990;-76
2022/04/23 00:17:00;;;;;;;13.43;12.03;;;;;;;8.78;82.91;99654.84;675843;29;1344;-76
2022/04/23 00:17:20;;;;;;;13.93;12.38;;;;;;;8.76;84.84;99660.03;676783;29;1722;-76
2022/04/23 00:17:43;;;;;;;13.60;11.97;;;;;;;8.75;84.19;99658.34;676132;29;1468;-76
2022/04/23 00:18:06;;;;;;;14.07;11.95;;;;;;;8.72;84.61;99660.97;675528;29;1832;-76
2022/04/23 00:18:27;;;;;;;13.60;12.05;;;;;;;8.73;84.25;99665.31;672794;29;1337;-76
2022/04/23 00:18:47;;;;;;;13.45;12.05;;;;;;;8.74;84.05;99661.81;673731;29;1174;-76
2022/04/23 00:19:07;;;;;;;13.60;12.20;;;;;;;8.74;84.21;99660.97;674109;29;4318;-76
2022/04/23 00:19:28;;;;;;;13.53;12.13;;;;;;;8.69;84.73;99667.09;677029;29;1567;-76
2022/04/23 00:19:48;;;;;;;14.53;12.50;;;;;;;8.66;85.42;99658.47;676476;29;1563;-76
2022/04/23 00:20:09;;;;;;;13.73;12.20;;;;;;;8.66;84.86;99661.06;678442;29;1262;-76
2022/04/23 00:20:30;;;;;;;13.57;12.18;;;;;;;8.66;84.73;99668.88;678819;28;1550;-76
2022/04/23 00:20:51;;;;;;;13.00;11.70;;;;;;;8.62;86.54;99668.03;678230;28;1418;-76
2022/04/23 00:21:13;;;;;;;13.40;12.00;;;;;;;8.64;85.69;99666.31;678679;28;1529;-76
2022/04/23 00:21:33;;;;;;;13.20;11.80;;;;;;;8.64;84.53;99671.50;678058;29;1589;-76
2022/04/23 00:21:53;;;;;;;13.73;11.95;;;;;;;8.61;84.29;99658.53;678637;28;1495;-76
2022/04/23 00:22:18;;;;;;;12.90;11.57;;;;;;;8.62;84.68;99669.78;676736;29;4347;-76
2022/04/23 00:22:38;;;;;;;13.70;12.30;;;;;;;8.61;84.42;99662.84;679148;28;1498;-76
2022/04/23 00:22:59;;;;;;;13.57;12.17;;;;;;;8.57;85.26;99674.19;679560;29;1362;-76
2022/04/23 00:23:19;;;;;;;14.35;12.85;;;;;;;8.55;85.17;99671.63;675860;29;1644;-76
2022/04/23 00:23:40;;;;;;;15.20;13.20;;;;;;;8.55;85.53;99665.56;676405;29;1562;-76
2022/04/23 00:24:00;;;;;;;14.38;12.85;;;;;;;8.54;85.19;99669.88;677979;29;2330;-76
2022/04/23 00:24:21;;;;;;;13.67;12.23;;;;;;;8.55;85.01;99663.81;678791;28;1858;-76
2022/04/23 00:24:41;;;;;;;13.32;11.93;;;;;;;8.55;85.03;99674.22;673638;29;1249;-76
2022/04/23 00:25:02;;;;;;;13.85;12.38;;;;;;;8.57;84.17;99663.78;673810;29;4497;-76
2022/04/23 00:25:23;;;;;;;14.10;12.60;;;;;;;8.60;85.70;99666.34;673259;29;1544;-76
2022/04/23 00:25:45;;;;;;;14.05;12.55;;;;;;;8.59;85.65;99668.09;673562;29;1143;-76
2022/04/23 00:26:06;;;;;;;14.25;11.90;;;;;;;8.65;84.01;99661.94;672702;29;1666;-76
2022/04/23 00:26:26;;;;;;;13.37;11.97;;;;;;;8.65;84.48;99674.97;671480;29;1612;-76
2022/04/23 00:26:47;;;;;;;14.77;12.57;;;;;;;8.64;84.66;99666.31;674046;29;1478;-76
2022/04/23 00:27:07;;;;;;;13.33;11.67;;;;;;;8.63;84.93;99668.94;674397;29;1321;-77
2022/04/23 00:27:30;;;;;;;13.35;11.75;;;;;;;8.66;84.55;99668.88;675212;29;1646;-76
2022/04/23 00:27:50;;;;;;;14.45;12.48;;;;;;;8.66;84.90;99667.13;675227;29;1367;-76
2022/04/23 00:28:11;;;;;;;14.17;12.40;;;;;;;8.66;84.34;99671.47;672757;29;4393;-76
2022/04/23 00:28:32;;;;;;;13.77;12.30;;;;;;;8.64;84.27;99673.22;676895;29;1372;-76
2022/04/23 00:28:53;;;;;;;13.63;12.13;;;;;;;8.62;84.79;99675.88;673606;29;1202;-76
2022/04/23 00:29:13;;;;;;;13.65;12.25;;;;;;;8.60;84.03;99675.03;674119;29;1370;-76
2022/04/23 00:29:35;;;;;;;14.13;12.63;;;;;;;8.61;84.03;99675.88;673101;29;1726;-76
2022/04/23 00:29:56;;;;;;;13.95;12.50;;;;;;;8.65;84.24;99667.16;675706;29;2185;-76
2022/04/23 00:30:16;;;;;;;14.40;12.90;;;;;;;8.66;84.38;99674.09;677663;29;1356;-76
2022/04/23 00:30:37;;;;;;;13.57;12.17;;;;;;;8.64;84.50;99673.22;675335;29;1606;-76
2022/04/23 00:30:58;;;;;;;13.40;12.00;;;;;;;8.65;84.62;99668.03;674123;29;4323;-76
2022/04/23 00:31:18;;;;;;;13.75;12.23;;;;;;;8.61;85.19;99670.66;674280;29;1432;-76
2022/04/23 00:31:38;;;;;;;14.00;12.57;;;;;;;8.58;84.67;99668.13;675340;29;1494;-76
2022/04/23 00:31:59;;;;;;;13.73;12.32;;;;;;;8.58;84.73;99671.56;679210;28;1459;-76
2022/04/23 00:32:22;;;;;;;12.52;11.23;;;;;;;8.58;85.08;99668.13;676077;29;1616;-76
2022/04/23 00:32:42;;;;;;;14.48;12.00;;;;;;;8.57;85.56;99669.00;673011;29;1394;-76
2022/04/23 00:33:03;;;;;;;13.85;11.65;;;;;;;8.55;84.72;99675.97;673533;29;1216;-76
2022/04/23 00:33:24;;;;;;;13.33;11.93;;;;;;;8.53;85.52;99668.19;670286;29;2231;-76
2022/04/23 00:33:44;;;;;;;13.23;11.83;;;;;;;8.56;84.28;99662.94;668506;29;1641;-76
2022/04/23 00:34:04;;;;;;;12.70;11.40;;;;;;;8.56;85.22;99667.28;671521;29;4453;-76
2022/04/23 00:34:26;;;;;;;13.53;11.60;;;;;;;8.57;85.49;99666.38;669183;29;1641;-76
2022/04/23 00:34:46;;;;;;;13.63;12.00;;;;;;;8.57;85.79;99671.59;669095;29;1326;-76
2022/04/23 00:35:07;;;;;;;13.68;12.18;;;;;;;8.60;84.84;99666.34;670832;29;1597;-76
2022/04/23 00:35:27;;;;;;;13.17;11.77;;;;;;;8.59;84.74;99667.25;672110;29;1639;-76
2022/04/23 00:35:50;;;;;;;14.23;12.00;;;;;;;8.60;84.55;99672.44;675283;29;1373;-76
2022/04/23 00:36:11;;;;;;;13.65;12.15;;;;;;;8.54;85.61;99669.88;679251;28;1492;-76
2022/04/23 00:36:32;;;;;;;14.02;12.52;;;;;;;8.49;85.46;99667.34;678472;29;1708;-76
2022/04/23 00:36:52;;;;;;;13.52;12.13;;;;;;;8.48;85.34;99664.75;675653;29;1311;-76
2022/04/23 00:37:14;;;;;;;13.80;12.38;;;;;;;8.45;84.89;99665.66;675539;29;4330;-76
2022/04/23 00:37:34;;;;;;;13.60;12.07;;;;;;;8.48;85.15;99665.63;676810;29;1539;-76
2022/04/23 00:37:56;;;;;;;13.47;12.07;;;;;;;8.49;83.82;99658.69;676575;29;1133;-76
2022/04/23 00:38:16;;;;;;;13.38;11.98;;;;;;;8.47;85.76;99671.72;673143;29;1810;-76
2022/04/23 00:38:40;;;;;;;14.05;12.55;;;;;;;8.44;86.54;99669.09;672243;29;1419;-76
2022/04/23 00:39:00;;;;;;;13.90;12.43;;;;;;;8.42;86.66;99676.09;671990;29;4521;-76
2022/04/23 00:39:20;;;;;;;13.63;12.23;;;;;;;8.41;85.96;99665.69;677958;28;1680;-76
2022/04/23 00:39:41;;;;;;;13.70;12.30;;;;;;;8.40;85.70;99661.34;678927;29;1391;-76
2022/04/23 00:40:06;;;;;;;13.83;12.43;;;;;;;8.39;85.91;99660.50;676989;28;4390;-76
2022/04/23 00:40:26;;;;;;;13.45;11.93;;;;;;;8.39;86.30;99664.84;679926;28;1398;-78
2022/04/23 00:40:46;;;;;;;13.40;12.00;;;;;;;8.37;86.19;99672.66;678616;28;1430;-76
2022/04/23 00:41:07;;;;;;;14.20;12.70;;;;;;;8.36;86.03;99668.31;678892;28;1617;-76
2022/04/23 00:41:46;;;;;;;13.93;12.43;;;;;;;8.37;86.08;99671.81;679549;29;1338;-76
2022/04/23 00:42:09;;;;;;;13.90;12.40;;;;;;;8.35;85.16;99670.09;676091;29;1703;-76
2022/04/23 00:42:29;;;;;;;13.75;12.27;;;;;;;8.35;85.65;99674.44;673712;29;1656;-76
2022/04/23 00:42:55;;;;;;;13.43;12.03;;;;;;;8.30;86.86;99669.25;674097;29;936;-76
2022/04/23 00:43:30;;;;;;;14.27;12.77;;;;;;;8.19;87.04;99671.97;675347;29;4340;-76
2022/04/23 00:43:50;;;;;;;13.98;12.57;;;;;;;8.14;87.30;99673.78;675619;29;1135;-76
2022/04/23 00:44:11;;;;;;;13.93;12.43;;;;;;;8.14;87.83;99679.00;676712;29;1524;-76
2022/04/23 00:44:31;;;;;;;14.65;12.80;;;;;;;8.13;87.48;99669.47;676711;29;1736;-76
2022/04/23 00:44:52;;;;;;;14.77;12.57;;;;;;;8.12;87.68;99672.94;674368;29;1652;-76
2022/04/23 00:45:12;;;;;;;15.73;12.70;;;;;;;8.12;87.53;99672.94;676282;29;1579;-76
2022/04/23 00:45:33;;;;;;;14.18;12.63;;;;;;;8.11;88.34;99666.03;675638;29;1326;-76
2022/04/23 00:45:54;;;;;;;14.03;12.60;;;;;;;8.11;87.74;99666.03;676151;29;1519;-76
2022/04/23 00:46:14;;;;;;;14.45;12.95;;;;;;;8.09;87.37;99672.97;677470;29;4433;-76
2022/04/23 00:46:34;;;;;;;13.88;12.38;;;;;;;8.07;87.33;99679.06;678885;29;1625;-76
2022/04/23 00:46:55;;;;;;;14.30;12.30;;;;;;;8.03;88.36;99673.06;677778;28;1479;-76
2022/04/23 00:47:15;;;;;;;14.95;12.65;;;;;;;8.02;88.07;99668.72;677374;29;1200;-76
2022/04/23 00:47:36;;;;;;;14.20;12.70;;;;;;;8.00;88.32;99667.84;678935;28;1535;-76
2022/04/23 00:47:56;;;;;;;13.70;12.30;;;;;;;8.01;88.10;99672.19;678467;28;1339;-76
2022/04/23 00:48:17;;;;;;;13.68;12.20;;;;;;;8.04;87.81;99674.75;676491;29;1503;-76
2022/04/23 00:48:37;;;;;;;13.63;12.07;;;;;;;8.02;87.72;99673.91;677564;29;1566;-76
2022/04/23 00:48:58;;;;;;;14.33;12.60;;;;;;;8.01;88.16;99675.63;674718;29;4373;-77
2022/04/23 00:49:19;;;;;;;13.85;12.45;;;;;;;8.04;88.69;99674.75;673806;29;1195;-76
2022/04/23 00:49:40;;;;;;;14.27;12.77;;;;;;;8.01;89.46;99672.19;676970;29;1099;-76
2022/04/23 00:50:02;;;;;;;14.20;12.70;;;;;;;8.07;89.06;99674.75;676694;29;1911;-76
2022/04/23 00:50:22;;;;;;;13.90;12.38;;;;;;;8.11;88.84;99670.34;676877;29;1806;-76
2022/04/23 00:50:43;;;;;;;13.95;12.07;;;;;;;8.15;87.91;99666.84;676273;29;1324;-76
2022/04/23 00:51:03;;;;;;;14.30;12.80;;;;;;;8.15;86.78;99672.88;675451;29;1329;-76
2022/04/23 00:51:31;;;;;;;13.77;12.27;;;;;;;8.17;86.91;99667.69;673811;29;1291;-76
2022/04/23 00:51:54;;;;;;;13.75;11.95;;;;;;;8.11;87.91;99670.34;674673;29;1800;-76
2022/04/23 00:52:14;;;;;;;13.85;12.35;;;;;;;8.05;88.42;99676.47;673929;29;4350;-76
2022/04/23 00:52:35;;;;;;;14.17;12.60;;;;;;;8.02;88.16;99668.72;672651;29;1742;-77
2022/04/23 00:53:01;;;;;;;13.38;11.98;;;;;;;8.00;88.05;99670.47;673201;29;2012;-76
2022/04/23 00:53:23;;;;;;;13.30;11.90;;;;;;;8.00;87.32;99676.53;674377;29;2139;-76
2022/04/23 00:53:46;;;;;;;14.18;12.68;;;;;;;7.99;88.03;99676.56;673736;29;1212;-76
2022/04/23 00:54:08;;;;;;;14.25;12.75;;;;;;;7.96;88.10;99671.38;674862;29;1215;-76
2022/04/23 00:54:28;;;;;;;14.65;13.02;;;;;;;7.92;89.57;99670.53;678334;29;1631;-76
2022/04/23 00:54:49;;;;;;;14.13;12.63;;;;;;;7.93;89.01;99669.66;680372;28;1625;-76
2022/04/23 00:55:09;;;;;;;14.17;12.67;;;;;;;7.92;88.70;99672.28;680966;28;4308;-76
2022/04/23 00:55:32;;;;;;;14.45;12.95;;;;;;;7.89;89.13;99673.19;681880;28;1313;-76
2022/04/23 00:55:53;;;;;;;14.70;13.13;;;;;;;7.89;88.77;99670.59;679245;28;2033;-76
2022/04/23 00:56:14;;;;;;;14.90;13.07;;;;;;;7.90;88.87;99674.03;679453;28;1890;-76
2022/04/23 00:56:39;;;;;;;14.23;12.20;;;;;;;7.89;89.65;99670.59;677700;29;1608;-76
2022/04/23 00:57:00;;;;;;;14.80;12.48;;;;;;;7.90;89.76;99677.50;677607;29;1417;-76
2022/04/23 00:57:20;;;;;;;13.65;12.25;;;;;;;7.93;87.94;99668.81;677822;28;1460;-76
2022/04/23 00:57:41;;;;;;;13.73;12.33;;;;;;;7.94;88.24;99668.78;679252;28;1660;-76
2022/04/23 00:58:02;;;;;;;13.90;12.50;;;;;;;7.92;88.21;99682.69;682002;28;4274;-76
2022/04/23 00:58:23;;;;;;;13.82;12.43;;;;;;;7.93;87.86;99677.44;681442;28;1320;-76
2022/04/23 00:58:44;;;;;;;13.77;12.30;;;;;;;7.91;88.91;99673.16;680826;28;1241;-76
2022/04/23 00:59:06;;;;;;;14.10;12.60;;;;;;;7.90;89.41;99674.88;677653;29;1508;-76
2022/04/23 00:59:28;;;;;;;14.48;12.98;;;;;;;7.93;89.08;99674.84;678102;28;1379;-76
2022/04/23 00:59:49;;;;;;;14.65;12.98;;;;;;;7.94;88.47;99671.38;677222;29;1753;-76
2022/04/23 01:00:10;;;;;;;14.50;12.75;;;;;;;7.97;88.58;99673.94;676319;29;1362;-76
2022/04/23 01:00:30;;;;;;;13.73;12.25;;;;;;;7.99;87.74;99673.97;677588;29;1230;-77
2022/04/23 01:00:50;;;;;;;13.53;12.13;;;;;;;8.00;88.44;99663.53;675225;29;1365;-76
2022/04/23 01:01:11;;;;;;;13.40;12.00;;;;;;;7.97;88.72;99673.09;672971;29;4494;-76
2022/04/23 01:01:31;;;;;;;14.97;12.57;;;;;;;7.89;89.50;99670.59;676002;29;2077;-76
2022/04/23 01:01:53;;;;;;;15.27;13.20;;;;;;;7.80;90.25;99671.50;675846;29;1270;-76
2022/04/23 01:02:15;;;;;;;14.50;13.00;;;;;;;7.73;90.46;99667.25;673093;29;1239;-76
2022/04/23 01:02:36;;;;;;;14.77;13.18;;;;;;;7.70;90.55;99669.88;681759;28;1562;-76
2022/04/23 01:02:56;;;;;;;14.60;13.10;;;;;;;7.70;90.55;99672.50;678769;29;1523;-76
2022/04/23 01:03:17;;;;;;;13.77;12.30;;;;;;;7.77;89.83;99665.50;678946;28;1355;-76
2022/04/23 01:03:37;;;;;;;13.27;11.88;;;;;;;7.80;89.80;99663.72;678819;29;1655;-76
2022/04/23 01:03:57;;;;;;;13.70;12.30;;;;;;;7.80;89.49;99666.31;678048;28;4566;-76
2022/04/23 01:04:18;;;;;;;13.85;12.45;;;;;;;7.80;89.30;99670.66;676725;29;1519;-76
2022/04/23 01:04:38;;;;;;;13.73;12.33;;;;;;;7.72;90.27;99668.13;676576;29;1436;-76
2022/04/23 01:04:58;;;;;;;14.13;12.60;;;;;;;7.71;89.19;99678.53;674001;29;1201;-76
2022/04/23 01:05:23;;;;;;;14.20;12.57;;;;;;;7.75;89.55;99673.28;674171;29;1724;-76
2022/04/23 01:05:46;;;;;;;14.05;12.65;;;;;;;7.74;90.26;99670.69;673771;29;2265;-76
2022/04/23 01:06:06;;;;;;;13.90;12.50;;;;;;;7.82;89.74;99671.50;675529;29;1537;-76
2022/04/23 01:06:26;;;;;;;13.90;12.37;;;;;;;7.86;88.79;99668.00;678340;29;1274;-76
2022/04/23 01:06:47;;;;;;;13.55;12.15;;;;;;;7.84;89.25;99661.94;677350;28;1275;-76
2022/04/23 01:07:08;;;;;;;13.75;12.35;;;;;;;7.81;88.57;99665.44;678545;28;4492;-76
2022/04/23 01:07:29;;;;;;;14.15;12.65;;;;;;;7.82;89.56;99661.97;678514;29;1007;-76
2022/04/23 01:07:51;;;;;;;14.63;12.70;;;;;;;7.80;89.75;99666.31;679113;29;1551;-76
2022/04/23 01:08:18;;;;;;;13.80;12.25;;;;;;;7.80;88.47;99666.31;676710;29;1614;-76
2022/04/23 01:08:38;;;;;;;14.73;13.13;;;;;;;7.76;88.95;99661.16;675000;29;1221;-76
2022/04/23 01:08:59;;;;;;;14.07;12.57;;;;;;;7.71;89.71;99662.94;676399;29;1239;-76
2022/04/23 01:09:20;;;;;;;13.35;12.05;;;;;;;7.68;89.68;99666.41;675586;29;1702;-76
2022/04/23 01:09:44;;;;;;;14.30;12.80;;;;;;;7.69;89.48;99664.69;677222;29;1530;-76
2022/04/23 01:10:06;;;;;;;15.32;13.18;;;;;;;7.70;89.13;99667.28;677274;29;4494;-76
2022/04/23 01:10:27;;;;;;;14.80;12.60;;;;;;;7.74;88.78;99663.78;676059;29;1711;-76
2022/04/23 01:10:50;;;;;;;14.03;12.53;;;;;;;7.77;88.92;99666.34;676212;29;1456;-76
2022/04/23 01:11:10;;;;;;;14.38;12.85;;;;;;;7.76;88.51;99666.38;675758;29;1413;-76
2022/04/23 01:11:32;;;;;;;13.93;12.43;;;;;;;7.74;89.09;99661.19;676378;29;1284;-76
2022/04/23 01:11:53;;;;;;;14.23;12.73;;;;;;;7.72;88.86;99662.06;673142;29;1487;-76
2022/04/23 01:12:13;;;;;;;14.43;12.93;;;;;;;7.74;89.00;99673.31;673545;29;1561;-76
2022/04/23 01:12:38;;;;;;;14.85;12.88;;;;;;;7.73;88.55;99664.66;676655;29;1514;-76
2022/04/23 01:12:59;;;;;;;15.75;13.18;;;;;;;7.72;89.19;99672.47;675353;29;4378;-76
2022/04/23 01:13:19;;;;;;;15.40;13.80;;;;;;;7.70;89.32;99675.09;679721;28;1662;-76
2022/04/23 01:13:43;;;;;;;15.05;13.55;;;;;;;7.64;89.83;99665.59;676324;29;1611;-76
2022/04/23 01:14:04;;;;;;;14.90;13.40;;;;;;;7.64;89.11;99668.22;678384;29;1208;-76
2022/04/23 01:14:24;;;;;;;14.85;13.35;;;;;;;7.64;89.38;99662.13;679362;28;1810;-76
2022/04/23 01:15:01;;;;;;;14.40;12.93;;;;;;;7.81;87.96;99660.25;674337;29;1417;-76
2022/04/23 01:15:21;;;;;;;14.18;12.68;;;;;;;7.78;88.96;99668.09;676820;28;1465;-76
2022/04/23 01:15:58;;;;;;;14.90;13.30;;;;;;;7.78;88.33;99667.19;677952;29;1361;-76
2022/04/23 01:16:19;;;;;;;14.80;13.23;;;;;;;7.78;88.61;99665.47;678669;29;6339;-76
2022/04/23 01:16:39;;;;;;;15.30;13.50;;;;;;;7.77;88.43;99671.56;675449;29;1763;-76
2022/04/23 01:17:00;;;;;;;15.55;13.43;;;;;;;7.73;89.74;99667.25;674660;29;1715;-76
2022/04/23 01:17:20;;;;;;;15.47;13.63;;;;;;;7.72;89.98;99667.28;673471;29;1838;-76
2022/04/23 01:17:41;;;;;;;15.97;13.87;;;;;;;7.67;90.06;99672.53;671974;29;1229;-76
2022/04/23 01:18:03;;;;;;;15.77;13.98;;;;;;;7.69;88.82;99667.31;671979;29;1642;-76
2022/04/23 01:18:23;;;;;;;15.02;13.07;;;;;;;7.71;89.24;99665.53;673167;29;1738;-76
2022/04/23 01:18:43;;;;;;;15.03;13.43;;;;;;;7.64;90.03;99662.13;673828;29;1180;-76
2022/04/23 01:19:04;;;;;;;15.33;13.73;;;;;;;7.62;89.60;99676.91;676230;29;4324;-76
2022/04/23 01:19:25;;;;;;;15.35;13.75;;;;;;;7.64;89.54;99664.72;675874;29;1280;-76
2022/04/23 01:19:46;;;;;;;15.48;13.88;;;;;;;7.58;90.94;99670.84;674131;29;1464;-76
2022/04/23 01:20:14;;;;;;;16.00;14.30;;;;;;;7.51;91.00;99663.97;676232;29;1698;-76
2022/04/23 01:20:36;;;;;;;15.25;13.65;;;;;;;7.49;91.26;99666.59;676144;29;1732;-76
2022/04/23 01:20:57;;;;;;;14.70;13.20;;;;;;;7.49;91.24;99669.19;676671;29;1700;-76
2022/04/23 01:21:18;;;;;;;15.18;13.57;;;;;;;7.50;91.64;99673.53;676476;29;1406;-76
2022/04/23 01:21:39;;;;;;;16.60;14.05;;;;;;;7.46;91.77;99665.75;677880;29;1435;-76
2022/04/23 01:21:59;;;;;;;16.10;14.40;;;;;;;7.41;91.63;99663.19;678051;29;4489;-76
2022/04/23 01:22:23;;;;;;;15.05;13.45;;;;;;;7.46;90.91;99670.94;672789;29;1506;-76
2022/04/23 01:22:44;;;;;;;16.40;13.60;;;;;;;7.47;91.00;99668.31;673408;29;1285;-76
2022/04/23 01:23:05;;;;;;;16.27;13.73;;;;;;;7.40;91.31;99671.84;672439;29;1718;-76
2022/04/23 01:23:26;;;;;;;15.60;13.88;;;;;;;7.35;91.76;99664.97;677956;29;1694;-76
2022/04/23 01:23:47;;;;;;;16.10;14.40;;;;;;;7.30;91.93;99665.00;678882;29;1696;-76
2022/04/23 01:24:08;;;;;;;15.50;13.80;;;;;;;7.30;92.33;99665.00;678056;29;1642;-76
2022/04/23 01:24:30;;;;;;;16.42;13.88;;;;;;;7.30;92.07;99670.22;674392;29;1566;-76
2022/04/23 01:24:51;;;;;;;16.23;14.52;;;;;;;7.31;92.03;99666.72;676841;29;1638;-76
2022/04/23 01:25:13;;;;;;;15.32;13.73;;;;;;;7.33;92.05;99665.84;677067;28;4260;-76
2022/04/23 01:25:34;;;;;;;15.15;13.55;;;;;;;7.39;91.94;99659.72;678240;28;1658;-76
2022/04/23 01:25:55;;;;;;;15.60;13.90;;;;;;;7.39;92.04;99675.31;678743;29;1701;-76
2022/04/23 01:26:30;;;;;;;16.05;14.35;;;;;;;7.33;92.04;99671.03;679595;28;1763;-76
2022/04/23 01:26:50;;;;;;;15.50;13.80;;;;;;;7.36;92.29;99666.69;676409;29;1497;-76
2022/04/23 01:27:11;;;;;;;15.13;13.40;;;;;;;7.40;91.13;99666.66;677259;29;1383;-76
2022/04/23 01:27:32;;;;;;;14.77;13.23;;;;;;;7.47;90.43;99667.47;677076;29;1557;-76
2022/04/23 01:27:53;;;;;;;14.68;13.02;;;;;;;7.53;90.79;99679.56;676740;29;1720;-76
2022/04/23 01:28:15;;;;;;;15.07;13.48;;;;;;;7.47;91.77;99673.53;680733;28;4318;-78
2022/04/23 01:28:37;;;;;;;15.20;13.50;;;;;;;7.45;90.62;99669.25;681411;28;1679;-76
2022/04/23 01:28:59;;;;;;;14.82;13.23;;;;;;;7.46;91.03;99664.03;678337;28;1415;-76
2022/04/23 01:29:19;;;;;;;15.10;13.50;;;;;;;7.46;90.90;99674.44;670410;29;1308;-76
2022/04/23 01:29:40;;;;;;;15.37;13.70;;;;;;;7.43;91.14;99674.41;675945;29;1334;-76
2022/04/23 01:30:01;;;;;;;14.93;13.38;;;;;;;7.49;90.53;99677.00;676709;29;1899;-76
2022/04/23 01:30:21;;;;;;;15.57;13.98;;;;;;;7.48;91.11;99666.59;676907;29;1654;-76
2022/04/23 01:30:42;;;;;;;15.43;13.83;;;;;;;7.45;91.28;99670.09;675607;29;1597;-76
2022/04/23 01:31:06;;;;;;;15.68;13.93;;;;;;;7.45;91.48;99666.63;674937;29;4356;-76
2022/04/23 01:31:27;;;;;;;16.02;14.32;;;;;;;7.45;91.39;99669.25;674692;29;1726;-76
2022/04/23 01:31:48;;;;;;;15.30;13.70;;;;;;;7.45;90.67;99674.44;668745;29;1349;-76
2022/04/23 01:32:08;;;;;;;15.37;13.77;;;;;;;7.47;90.39;99673.53;671749;29;1427;-76
2022/04/23 01:32:29;;;;;;;15.30;13.60;;;;;;;7.46;91.20;99668.34;671960;29;2493;-76
2022/04/23 01:32:49;;;;;;;15.13;13.53;;;;;;;7.40;91.61;99671.84;674732;29;1108;-76
2022/04/23 01:33:09;;;;;;;15.13;13.53;;;;;;;7.36;90.78;99669.31;677121;29;1512;-76
2022/04/23 01:33:32;;;;;;;14.98;13.38;;;;;;;7.32;91.19;99671.03;676578;29;1507;-76
2022/04/23 01:33:53;;;;;;;14.98;13.38;;;;;;;7.31;90.94;99671.91;672047;29;1201;-76
2022/04/23 01:34:14;;;;;;;15.25;13.30;;;;;;;7.36;91.49;99670.16;670645;29;4305;-76
2022/04/23 01:34:34;;;;;;;15.57;13.20;;;;;;;7.35;92.00;99672.75;672993;29;1694;-76
2022/04/23 01:34:54;;;;;;;15.88;13.60;;;;;;;7.31;92.05;99671.91;674343;29;1170;-76
2022/04/23 01:35:15;;;;;;;15.07;13.47;;;;;;;7.27;91.69;99665.88;674864;29;1286;-76
2022/04/23 01:35:35;;;;;;;15.77;13.73;;;;;;;7.27;91.21;99670.22;678318;28;1358;-76
2022/04/23 01:35:55;;;;;;;14.83;13.23;;;;;;;7.27;92.23;99668.50;671727;29;1207;-76
2022/04/23 01:36:16;;;;;;;15.07;13.47;;;;;;;7.27;92.23;99665.88;673879;29;1282;-76
2022/04/23 01:36:36;;;;;;;15.30;13.70;;;;;;;7.27;92.50;99672.81;671182;29;1557;-76
2022/04/23 01:36:57;;;;;;;15.13;13.52;;;;;;;7.20;93.19;99673.72;673047;29;4329;-76
2022/04/23 01:37:17;;;;;;;15.60;14.00;;;;;;;7.15;92.74;99669.44;679124;28;1616;-76
2022/04/23 01:37:38;;;;;;;16.08;14.40;;;;;;;7.11;93.02;99670.31;675999;29;1595;-76
2022/04/23 01:37:58;;;;;;;16.13;14.43;;;;;;;7.19;91.92;99666.84;672927;29;1468;-76
2022/04/23 01:38:19;;;;;;;15.47;13.80;;;;;;;7.22;92.60;99669.41;673015;29;1547;-76
2022/04/23 01:38:40;;;;;;;15.68;13.98;;;;;;;7.27;91.94;99672.81;676014;29;1708;-76
2022/04/23 01:39:00;;;;;;;15.73;13.98;;;;;;;7.28;91.31;99666.75;676131;29;4854;-76
2022/04/23 01:39:20;;;;;;;15.05;13.45;;;;;;;7.24;91.30;99667.63;678621;28;1291;-76
2022/04/23 01:39:41;;;;;;;15.30;13.70;;;;;;;7.25;91.60;99674.56;680944;28;1368;-77
2022/04/23 01:40:01;;;;;;;15.00;13.20;;;;;;;7.23;91.57;99666.78;679492;28;4559;-76
2022/04/23 01:40:22;;;;;;;14.97;13.37;;;;;;;7.21;92.91;99665.06;677563;29;1480;-76
2022/04/23 01:40:43;;;;;;;15.95;14.07;;;;;;;7.23;91.76;99671.13;672837;29;1727;-76
2022/04/23 01:41:03;;;;;;;16.35;13.48;;;;;;;7.24;92.28;99671.13;673286;29;1572;-76
2022/04/23 01:41:23;;;;;;;15.87;13.73;;;;;;;7.21;92.79;99665.06;675428;29;1282;-76
2022/04/23 01:41:47;;;;;;;15.80;14.10;;;;;;;7.17;93.12;99664.22;682173;28;1478;-76